Time;durP1;ratioP1;P1;durP2;ratioP2;P2;SDS_P1;SDS_P2;PMS_P1;PMS_P2;Temp;Humidity;BMP_temperature;BMP_pressure;BME280_temperature;BME280_humidity;BME280_pressure;Samples;Min_cycle;Max_cycle;Signal;HPM_P1;HPM_P2
2022/11/26 00:01:37;;;;;;;9.40;4.03;;;;;;;;;;10412820;28;20056;-58
2022/11/26 00:06:41;;;;;;;8.32;3.90;;;;;;;;;;10412837;28;20606;-59
2022/11/26 00:11:42;;;;;;;6.20;3.92;;;;;;;;;;10395031;28;20406;-59
2022/11/26 00:16:43;;;;;;;14.05;3.97;;;;;;;;;;10411218;28;20030;-58
2022/11/26 00:21:44;;;;;;;8.10;3.65;;;;;;;;;;10412078;28;20481;-59
2022/11/26 00:26:44;;;;;;;7.20;3.83;;;;;;;;;;10412025;28;20028;-61
2022/11/26 00:31:46;;;;;;;5.53;3.63;;;;;;;;;;10412392;28;20050;-59
2022/11/26 00:36:47;;;;;;;4.03;2.90;;;;;;;;;;10411449;28;20560;-58
2022/11/26 00:41:51;;;;;;;9.80;3.30;;;;;;;;;;10411833;28;20102;-58
2022/11/26 00:46:52;;;;;;;9.35;3.58;;;;;;;;;;10410454;28;20107;-58
2022/11/26 00:51:52;;;;;;;7.13;3.70;;;;;;;;;;10409806;28;20187;-58
2022/11/26 00:56:53;;;;;;;7.65;3.53;;;;;;;;;;10410791;28;20053;-61
2022/11/26 01:01:54;;;;;;;5.60;3.55;;;;;;;;;;10410627;28;20115;-60
2022/11/26 01:06:54;;;;;;;5.90;3.58;;;;;;;;;;10410421;28;20736;-61
2022/11/26 01:11:55;;;;;;;6.40;3.75;;;;;;;;;;10410311;28;20401;-61
2022/11/26 01:16:56;;;;;;;5.40;3.47;;;;;;;;;;10410101;28;20041;-61
2022/11/26 01:21:56;;;;;;;6.25;3.70;;;;;;;;;;10410174;28;20026;-61
2022/11/26 01:26:57;;;;;;;4.93;3.50;;;;;;;;;;10409741;28;20029;-61
2022/11/26 01:31:58;;;;;;;5.50;3.50;;;;;;;;;;10409672;28;20103;-58
2022/11/26 01:36:58;;;;;;;3.90;3.08;;;;;;;;;;10409353;28;20021;-58
2022/11/26 01:42:11;;;;;;;4.75;3.30;;;;;;;;;;10409457;28;20029;-58
2022/11/26 01:47:29;;;;;;;4.20;3.13;;;;;;;;;;10407931;28;20029;-60
2022/11/26 01:52:29;;;;;;;8.90;3.60;;;;;;;;;;10409016;28;20107;-58
2022/11/26 01:57:32;;;;;;;3.53;3.00;;;;;;;;;;10409333;28;20033;-58
2022/11/26 02:02:33;;;;;;;6.60;3.30;;;;;;;;;;10418167;28;20032;-57
2022/11/26 02:07:34;;;;;;;7.18;3.10;;;;;;;;;;10421090;28;20032;-60
2022/11/26 02:12:36;;;;;;;9.60;3.22;;;;;;;;;;10422446;28;20022;-59
2022/11/26 02:17:42;;;;;;;10.00;4.05;;;;;;;;;;10403868;28;20541;-59
2022/11/26 02:22:54;;;;;;;5.07;3.20;;;;;;;;;;10421990;28;20500;-58
2022/11/26 02:28:25;;;;;;;5.70;2.92;;;;;;;;;;10421797;28;20477;-58
2022/11/26 02:33:38;;;;;;;5.00;3.10;;;;;;;;;;10421950;28;20086;-59
2022/11/26 02:38:39;;;;;;;7.55;3.35;;;;;;;;;;10420461;28;20112;-59
2022/11/26 02:43:39;;;;;;;4.90;3.35;;;;;;;;;;10420422;28;20102;-59
2022/11/26 02:48:44;;;;;;;4.45;2.70;;;;;;;;;;10421559;28;20075;-58
2022/11/26 02:53:48;;;;;;;4.28;2.85;;;;;;;;;;10411755;28;20057;-61
2022/11/26 02:58:51;;;;;;;4.35;2.83;;;;;;;;;;10419937;28;20032;-58
2022/11/26 03:03:53;;;;;;;5.18;2.85;;;;;;;;;;10420092;28;20034;-59
2022/11/26 03:08:55;;;;;;;7.35;2.50;;;;;;;;;;10419828;28;20497;-58
2022/11/26 03:13:55;;;;;;;5.35;3.15;;;;;;;;;;10414985;28;20037;-59
2022/11/26 03:18:56;;;;;;;3.65;2.50;;;;;;;;;;10414535;28;20473;-59
2022/11/26 03:23:56;;;;;;;3.22;2.67;;;;;;;;;;10414282;28;20044;-58
2022/11/26 03:28:57;;;;;;;6.60;3.17;;;;;;;;;;10446707;23;20061;-51
2022/11/26 03:33:57;;;;;;;4.35;2.80;;;;;;;;;;10501458;28;20032;-53
2022/11/26 03:38:58;;;;;;;3.30;2.53;;;;;;;;;;10499376;28;20040;-53
2022/11/26 03:43:59;;;;;;;4.80;2.50;;;;;;;;;;10494732;28;20544;-54
2022/11/26 03:48:59;;;;;;;5.03;2.85;;;;;;;;;;10495529;28;20025;-54
2022/11/26 03:54:00;;;;;;;3.30;2.05;;;;;;;;;;10496456;28;20476;-52
2022/11/26 03:59:00;;;;;;;6.10;2.40;;;;;;;;;;10495568;28;20487;-50
2022/11/26 04:04:01;;;;;;;4.47;2.60;;;;;;;;;;10495400;28;20099;-53
2022/11/26 04:09:02;;;;;;;4.00;2.60;;;;;;;;;;10495807;28;20024;-52
2022/11/26 04:14:02;;;;;;;3.58;2.25;;;;;;;;;;10494950;28;20439;-52
2022/11/26 04:19:03;;;;;;;3.80;2.33;;;;;;;;;;10476591;28;20020;-53
2022/11/26 04:24:04;;;;;;;5.35;2.47;;;;;;;;;;10494463;28;20032;-53
2022/11/26 04:29:05;;;;;;;3.38;2.58;;;;;;;;;;10494015;28;20040;-53
2022/11/26 04:34:05;;;;;;;4.30;2.83;;;;;;;;;;10494302;28;20024;-54
2022/11/26 04:39:06;;;;;;;2.85;2.20;;;;;;;;;;10493901;28;20491;-55
2022/11/26 04:44:06;;;;;;;2.85;2.35;;;;;;;;;;10493688;28;20025;-53
2022/11/26 04:49:07;;;;;;;3.78;2.30;;;;;;;;;;10494093;28;20020;-51
2022/11/26 04:54:08;;;;;;;3.25;2.55;;;;;;;;;;10493267;28;20064;-53
2022/11/26 04:59:08;;;;;;;3.70;2.40;;;;;;;;;;10493074;28;20032;-58
2022/11/26 05:04:09;;;;;;;3.00;2.33;;;;;;;;;;10492942;28;20031;-52
2022/11/26 05:09:09;;;;;;;2.63;2.33;;;;;;;;;;10492841;28;20043;-51
2022/11/26 05:14:10;;;;;;;2.58;2.17;;;;;;;;;;10492673;28;20029;-51
2022/11/26 05:19:11;;;;;;;2.72;2.30;;;;;;;;;;10492382;28;20093;-52
2022/11/26 05:24:11;;;;;;;4.32;2.20;;;;;;;;;;10492211;28;20028;-54
2022/11/26 05:29:12;;;;;;;2.50;2.17;;;;;;;;;;10491814;28;20055;-51
2022/11/26 05:34:12;;;;;;;4.10;2.75;;;;;;;;;;10491938;28;20029;-51
2022/11/26 05:39:13;;;;;;;2.78;2.20;;;;;;;;;;10491336;28;20472;-52
2022/11/26 05:44:13;;;;;;;2.95;2.10;;;;;;;;;;10491613;28;20035;-55
2022/11/26 05:49:14;;;;;;;2.65;2.30;;;;;;;;;;10491604;28;20029;-54
2022/11/26 05:54:15;;;;;;;2.50;2.10;;;;;;;;;;10491516;28;20024;-54
2022/11/26 05:59:16;;;;;;;3.22;2.05;;;;;;;;;;10491077;28;20029;-52
2022/11/26 06:04:16;;;;;;;3.13;2.65;;;;;;;;;;10491737;28;20032;-51
2022/11/26 06:09:17;;;;;;;3.13;2.30;;;;;;;;;;10490335;28;20056;-57
2022/11/26 06:14:18;;;;;;;7.05;2.40;;;;;;;;;;10491933;28;20021;-52
2022/11/26 06:19:18;;;;;;;6.18;2.50;;;;;;;;;;10491182;28;20361;-52
2022/11/26 06:24:19;;;;;;;2.42;2.20;;;;;;;;;;10490859;28;20052;-52
2022/11/26 06:29:19;;;;;;;3.40;2.30;;;;;;;;;;10490543;28;20094;-51
2022/11/26 06:34:21;;;;;;;2.92;2.05;;;;;;;;;;10490442;28;20025;-54
2022/11/26 06:39:21;;;;;;;3.63;2.17;;;;;;;;;;10490284;28;20085;-53
2022/11/26 06:44:22;;;;;;;3.78;2.40;;;;;;;;;;10491208;28;20421;-57
2022/11/26 06:49:23;;;;;;;13.25;2.20;;;;;;;;;;10494749;28;20036;-51
2022/11/26 06:54:23;;;;;;;3.03;2.22;;;;;;;;;;10498693;28;20024;-51
2022/11/26 06:59:24;;;;;;;2.45;2.20;;;;;;;;;;10497686;28;20036;-50
2022/11/26 07:04:24;;;;;;;2.45;2.25;;;;;;;;;;10497796;28;20025;-49
2022/11/26 07:09:25;;;;;;;3.10;2.50;;;;;;;;;;10497409;28;20029;-50
2022/11/26 07:14:26;;;;;;;5.40;2.38;;;;;;;;;;10479466;28;20036;-54
2022/11/26 07:19:26;;;;;;;3.00;1.88;;;;;;;;;;10496903;28;20040;-51
2022/11/26 07:24:27;;;;;;;14.98;2.40;;;;;;;;;;10496603;28;20029;-49
2022/11/26 07:29:27;;;;;;;3.47;2.42;;;;;;;;;;10496014;28;20136;-50
2022/11/26 07:34:28;;;;;;;7.13;2.22;;;;;;;;;;10476907;28;20033;-54
2022/11/26 07:39:29;;;;;;;9.07;2.22;;;;;;;;;;10495519;28;20496;-49
2022/11/26 07:44:29;;;;;;;8.85;2.70;;;;;;;;;;10496013;28;20039;-49
2022/11/26 07:49:30;;;;;;;9.20;2.97;;;;;;;;;;10495420;28;20078;-51
2022/11/26 07:54:30;;;;;;;11.77;3.08;;;;;;;;;;10495562;28;20036;-50
2022/11/26 07:59:31;;;;;;;5.07;2.65;;;;;;;;;;10494274;28;20052;-51
2022/11/26 08:04:31;;;;;;;10.00;3.20;;;;;;;;;;10494432;28;20389;-49
2022/11/26 08:09:32;;;;;;;8.32;2.53;;;;;;;;;;10491806;28;20033;-54
2022/11/26 08:14:33;;;;;;;7.63;3.08;;;;;;;;;;10495205;28;20050;-52
2022/11/26 08:19:33;;;;;;;11.40;2.72;;;;;;;;;;10494379;28;20036;-50
2022/11/26 08:24:41;;;;;;;12.32;2.95;;;;;;;;;;10486634;28;20487;-54
2022/11/26 08:29:41;;;;;;;12.63;3.20;;;;;;;;;;10493320;28;20137;-53
2022/11/26 08:34:42;;;;;;;5.65;2.40;;;;;;;;;;10493638;28;20105;-52
2022/11/26 08:39:42;;;;;;;7.47;3.10;;;;;;;;;;10493391;28;20036;-50
2022/11/26 08:44:43;;;;;;;9.13;2.80;;;;;;;;;;10493546;28;20051;-49
2022/11/26 08:49:46;;;;;;;9.25;2.78;;;;;;;;;;10493039;28;20115;-53
2022/11/26 08:54:47;;;;;;;13.50;3.35;;;;;;;;;;10492810;28;20063;-51
2022/11/26 08:59:49;;;;;;;8.93;3.20;;;;;;;;;;10492414;28;20032;-54
2022/11/26 09:04:50;;;;;;;15.48;3.35;;;;;;;;;;10492853;28;20029;-50
2022/11/26 09:09:50;;;;;;;16.08;3.65;;;;;;;;;;10491481;28;20050;-50
2022/11/26 09:14:51;;;;;;;13.77;4.10;;;;;;;;;;10492141;28;20029;-51
2022/11/26 09:19:51;;;;;;;8.75;3.88;;;;;;;;;;10491567;28;20032;-50
2022/11/26 09:24:52;;;;;;;9.18;2.85;;;;;;;;;;10491959;28;20032;-50
2022/11/26 09:29:52;;;;;;;13.88;3.10;;;;;;;;;;10490852;28;20093;-48
2022/11/26 09:34:53;;;;;;;12.85;3.22;;;;;;;;;;10489195;28;20040;-49
2022/11/26 09:39:54;;;;;;;13.10;3.10;;;;;;;;;;10490883;28;20444;-50
2022/11/26 09:45:10;;;;;;;10.65;3.22;;;;;;;;;;10491554;28;20032;-57
2022/11/26 09:50:18;;;;;;;12.88;3.80;;;;;;;;;;10491452;28;20032;-50
2022/11/26 09:55:39;;;;;;;12.70;2.80;;;;;;;;;;10473085;28;20589;-53
2022/11/26 10:00:46;;;;;;;12.60;3.70;;;;;;;;;;10491476;28;20035;-52
2022/11/26 10:05:51;;;;;;;16.20;3.67;;;;;;;;;;10491236;28;20031;-53
2022/11/26 10:11:01;;;;;;;9.05;3.50;;;;;;;;;;10491859;28;20021;-48
2022/11/26 10:16:27;;;;;;;11.85;4.18;;;;;;;;;;10490645;28;20043;-47
2022/11/26 10:21:42;;;;;;;16.88;5.20;;;;;;;;;;10492036;28;20122;-49
2022/11/26 10:26:44;;;;;;;12.65;5.03;;;;;;;;;;10481752;28;20062;-47
2022/11/26 10:31:47;;;;;;;8.90;4.30;;;;;;;;;;10480953;28;20044;-49
2022/11/26 10:36:49;;;;;;;9.63;4.15;;;;;;;;;;10498824;28;20043;-47
2022/11/26 10:41:50;;;;;;;11.18;3.88;;;;;;;;;;10480002;28;20025;-58
2022/11/26 10:46:51;;;;;;;6.30;3.85;;;;;;;;;;10498182;28;20029;-48
2022/11/26 10:52:00;;;;;;;11.25;3.85;;;;;;;;;;10497790;28;20028;-52
2022/11/26 10:57:18;;;;;;;8.35;3.97;;;;;;;;;;10480898;28;20032;-48
2022/11/26 11:02:18;;;;;;;5.83;3.43;;;;;;;;;;10495055;28;20404;-49
2022/11/26 11:07:31;;;;;;;17.67;3.73;;;;;;;;;;10497717;28;20028;-50
2022/11/26 11:12:31;;;;;;;8.13;3.38;;;;;;;;;;10497243;28;20468;-48
2022/11/26 11:17:37;;;;;;;8.32;3.65;;;;;;;;;;10479803;28;20031;-48
2022/11/26 11:22:37;;;;;;;8.10;2.85;;;;;;;;;;10479344;28;20029;-50
2022/11/26 11:27:42;;;;;;;6.25;3.20;;;;;;;;;;10496728;28;20029;-48
2022/11/26 11:32:43;;;;;;;4.30;2.63;;;;;;;;;;10495621;28;20044;-49
2022/11/26 11:37:55;;;;;;;9.43;3.22;;;;;;;;;;10479359;28;20098;-48
2022/11/26 11:43:03;;;;;;;12.32;2.67;;;;;;;;;;10496270;28;20056;-48
2022/11/26 11:48:25;;;;;;;6.83;2.90;;;;;;;;;;10476180;28;20024;-50
2022/11/26 11:53:54;;;;;;;4.93;2.72;;;;;;;;;;10496241;28;20031;-47
2022/11/26 11:59:03;;;;;;;3.63;2.28;;;;;;;;;;10492483;28;20040;-47
2022/11/26 12:04:42;;;;;;;7.13;3.10;;;;;;;;;;10492107;28;20028;-48
2022/11/26 12:09:49;;;;;;;;;;;;;;;;;;10453756;28;20056;-50
2022/11/26 12:14:54;;;;;;;7.90;2.42;;;;;;;;;;10495219;28;19912;-50
2022/11/26 12:20:17;;;;;;;5.32;2.60;;;;;;;;;;10477278;28;20376;-48
2022/11/26 12:25:32;;;;;;;4.47;2.65;;;;;;;;;;10479406;28;20040;-54
2022/11/26 12:31:00;;;;;;;5.20;2.63;;;;;;;;;;10476472;28;20052;-52
2022/11/26 12:36:37;;;;;;;11.43;2.60;;;;;;;;;;10464985;28;20422;-51
2022/11/26 12:42:25;;;;;;;4.88;2.50;;;;;;;;;;10494177;28;20025;-49
2022/11/26 12:47:40;;;;;;;10.20;3.10;;;;;;;;;;10473189;28;20040;-48
2022/11/26 12:53:10;;;;;;;4.22;2.60;;;;;;;;;;10476160;28;20467;-52
2022/11/26 12:58:20;;;;;;;6.82;2.03;;;;;;;;;;10476332;28;20029;-51
2022/11/26 13:03:29;;;;;;;8.88;2.45;;;;;;;;;;10492755;28;20035;-50
2022/11/26 13:08:50;;;;;;;6.32;2.38;;;;;;;;;;10493027;28;20032;-53
2022/11/26 13:14:39;;;;;;;4.53;2.17;;;;;;;;;;10492707;28;20373;-56
2022/11/26 13:19:42;;;;;;;8.65;2.60;;;;;;;;;;10461191;28;20044;-54
2022/11/26 13:25:04;;;;;;;9.00;2.33;;;;;;;;;;10490825;28;20040;-50
2022/11/26 13:30:10;;;;;;;10.10;2.33;;;;;;;;;;10491457;28;20036;-53
2022/11/26 13:35:57;;;;;;;4.40;2.25;;;;;;;;;;10491413;28;20099;-57
2022/11/26 13:41:10;;;;;;;7.25;2.10;;;;;;;;;;10475837;28;20032;-53
2022/11/26 13:46:30;;;;;;;11.20;2.38;;;;;;;;;;10491723;28;20021;-58
2022/11/26 14:50:01;;;;;;;5.18;1.98;;;;;;;;;;10439565;28;20045;-59
2022/11/26 14:55:07;;;;;;;6.47;2.35;;;;;;;;;;10407850;28;20036;-51
2022/11/26 16:21:35;;;;;;;8.63;1.85;;;;;;;;;;8068669;28;20129;-61
2022/11/26 16:26:59;;;;;;;6.30;2.00;;;;;;;;;;10496107;28;20040;-61
2022/11/26 16:32:02;;;;;;;8.27;1.83;;;;;;;;;;10518193;28;20043;-61
2022/11/26 16:37:21;;;;;;;4.43;1.90;;;;;;;;;;10531661;28;20044;-61
2022/11/26 16:42:22;;;;;;;4.45;1.42;;;;;;;;;;10514547;28;20036;-61
2022/11/26 16:47:26;;;;;;;2.38;1.60;;;;;;;;;;10531699;28;20017;-61
2022/11/26 16:52:26;;;;;;;2.33;1.77;;;;;;;;;;10512574;28;20241;-60
2022/11/26 16:57:27;;;;;;;5.00;1.92;;;;;;;;;;10531258;28;20119;-60
2022/11/26 17:02:28;;;;;;;5.25;1.60;;;;;;;;;;10531129;28;20027;-60
2022/11/26 17:07:36;;;;;;;6.18;2.10;;;;;;;;;;10530882;28;20483;-61
2022/11/26 17:12:36;;;;;;;7.80;2.22;;;;;;;;;;10497643;28;20111;-59
2022/11/26 17:17:37;;;;;;;3.80;2.13;;;;;;;;;;10518286;28;20046;-61
2022/11/26 17:22:38;;;;;;;10.82;2.10;;;;;;;;;;10528755;28;20044;-61
2022/11/26 17:27:40;;;;;;;3.10;1.80;;;;;;;;;;10528509;28;20028;-61
2022/11/26 17:32:40;;;;;;;3.88;2.08;;;;;;;;;;10529500;28;20089;-61
2022/11/26 17:37:42;;;;;;;2.33;2.08;;;;;;;;;;10529733;28;20543;-61
2022/11/26 17:42:42;;;;;;;4.05;2.30;;;;;;;;;;10510619;28;20589;-60
2022/11/26 17:47:44;;;;;;;3.33;2.50;;;;;;;;;;10529477;28;20282;-61
2022/11/26 17:52:45;;;;;;;7.00;3.00;;;;;;;;;;10508701;28;20179;-60
2022/11/26 17:57:45;;;;;;;3.92;2.80;;;;;;;;;;10499626;28;20559;-60
2022/11/26 18:02:46;;;;;;;3.70;3.00;;;;;;;;;;10494791;28;20029;-60
2022/11/26 18:07:48;;;;;;;5.63;2.72;;;;;;;;;;10474289;28;20032;-61
2022/11/26 18:12:53;;;;;;;7.25;2.47;;;;;;;;;;10491284;28;20024;-61
2022/11/26 18:17:54;;;;;;;3.05;2.65;;;;;;;;;;10485537;28;20032;-57
2022/11/26 18:22:58;;;;;;;5.13;2.75;;;;;;;;;;10491932;28;20051;-62
2022/11/26 18:27:59;;;;;;;3.90;2.50;;;;;;;;;;10512969;28;20167;-61
2022/11/26 18:33:00;;;;;;;6.63;2.35;;;;;;;;;;10483007;28;20167;-61
2022/11/26 18:38:02;;;;;;;8.85;3.17;;;;;;;;;;10497787;28;20040;-61
2022/11/26 18:43:03;;;;;;;4.57;2.63;;;;;;;;;;10516454;28;20113;-62
2022/11/26 18:48:04;;;;;;;6.15;2.85;;;;;;;;;;10508586;28;20032;-58
2022/11/26 18:53:05;;;;;;;3.38;2.65;;;;;;;;;;10498073;28;20039;-61
2022/11/26 18:58:06;;;;;;;3.65;2.83;;;;;;;;;;10500552;28;20372;-60
2022/11/26 19:03:06;;;;;;;4.65;3.53;;;;;;;;;;10494885;28;20037;-61
2022/11/26 19:08:07;;;;;;;5.40;2.83;;;;;;;;;;10490299;28;20028;-61
2022/11/26 19:13:08;;;;;;;4.05;2.72;;;;;;;;;;10494748;28;20035;-62
2022/11/26 19:18:13;;;;;;;6.57;3.10;;;;;;;;;;10498854;28;20490;-61
2022/11/26 19:23:14;;;;;;;4.95;2.72;;;;;;;;;;10495981;28;20048;-61
2022/11/26 19:28:14;;;;;;;3.88;2.70;;;;;;;;;;10496950;28;20426;-60
2022/11/26 19:33:15;;;;;;;4.22;2.90;;;;;;;;;;10515424;28;20028;-61
2022/11/26 19:38:15;;;;;;;4.68;2.88;;;;;;;;;;10499298;28;20024;-60
2022/11/26 19:43:16;;;;;;;5.85;3.88;;;;;;;;;;10510403;28;20028;-60
2022/11/26 19:48:17;;;;;;;8.77;5.25;;;;;;;;;;10516582;28;20032;-60
2022/11/26 19:53:17;;;;;;;9.32;5.80;;;;;;;;;;10488473;28;20036;-60
2022/11/26 19:58:18;;;;;;;11.13;5.50;;;;;;;;;;10491915;28;20387;-58
2022/11/26 20:03:19;;;;;;;13.77;5.85;;;;;;;;;;10489388;28;20364;-59
2022/11/26 20:08:20;;;;;;;11.63;6.45;;;;;;;;;;10491089;28;20427;-60
2022/11/26 20:13:21;;;;;;;12.05;6.70;;;;;;;;;;10473185;28;20024;-62
2022/11/26 20:18:22;;;;;;;16.10;6.88;;;;;;;;;;10476132;28;20029;-62
2022/11/26 20:23:22;;;;;;;9.15;5.40;;;;;;;;;;10477321;28;20423;-61
2022/11/26 20:28:24;;;;;;;13.77;6.50;;;;;;;;;;10483345;28;20025;-61
2022/11/26 20:33:25;;;;;;;13.52;6.10;;;;;;;;;;10478278;28;20044;-61
2022/11/26 20:38:25;;;;;;;11.45;5.70;;;;;;;;;;10487613;28;20029;-61
2022/11/26 20:43:26;;;;;;;9.02;5.57;;;;;;;;;;10479651;28;20039;-61
2022/11/26 20:48:27;;;;;;;10.38;5.15;;;;;;;;;;10479629;28;20032;-61
2022/11/26 20:53:28;;;;;;;8.10;4.93;;;;;;;;;;10476425;28;20031;-61
2022/11/26 20:58:29;;;;;;;10.27;5.60;;;;;;;;;;10485849;28;20377;-62
2022/11/26 21:03:30;;;;;;;11.70;4.93;;;;;;;;;;10482522;28;20021;-61
2022/11/26 21:08:31;;;;;;;10.50;5.35;;;;;;;;;;10489096;28;20033;-61
2022/11/26 21:13:32;;;;;;;9.43;5.28;;;;;;;;;;10471089;28;20024;-62
2022/11/26 21:18:33;;;;;;;7.90;4.57;;;;;;;;;;10483760;28;20051;-61
2022/11/26 21:23:37;;;;;;;6.95;4.93;;;;;;;;;;10482061;28;20094;-62
2022/11/26 21:28:38;;;;;;;10.77;5.03;;;;;;;;;;10478329;28;20486;-61
2022/11/26 21:33:39;;;;;;;13.02;5.88;;;;;;;;;;10497038;28;20020;-63
2022/11/26 21:38:40;;;;;;;18.98;5.60;;;;;;;;;;10491837;28;20040;-63
2022/11/26 21:43:42;;;;;;;14.70;5.90;;;;;;;;;;10506220;28;20052;-63
2022/11/26 21:48:43;;;;;;;13.40;5.38;;;;;;;;;;10506006;28;20039;-62
2022/11/26 21:53:45;;;;;;;19.13;5.65;;;;;;;;;;10504251;28;20036;-64
2022/11/26 21:58:47;;;;;;;14.93;5.07;;;;;;;;;;10512801;28;20036;-65
2022/11/26 22:03:51;;;;;;;15.50;5.40;;;;;;;;;;10501904;28;20085;-64
2022/11/26 22:08:52;;;;;;;15.88;5.47;;;;;;;;;;10502350;28;20279;-63
2022/11/26 22:13:53;;;;;;;15.30;5.32;;;;;;;;;;10520291;28;20460;-63
2022/11/26 22:18:56;;;;;;;19.15;6.03;;;;;;;;;;10525492;28;20046;-62
2022/11/26 22:23:58;;;;;;;10.18;5.75;;;;;;;;;;10526058;28;20178;-62
2022/11/26 22:28:59;;;;;;;8.90;5.00;;;;;;;;;;10502198;28;20744;-63
2022/11/26 22:34:20;;;;;;;13.40;4.57;;;;;;;;;;10531179;28;20024;-62
2022/11/26 22:39:21;;;;;;;10.00;4.68;;;;;;;;;;10503503;28;20039;-62
2022/11/26 22:44:22;;;;;;;13.00;4.95;;;;;;;;;;10537922;28;20028;-62
2022/11/26 22:49:22;;;;;;;13.15;5.00;;;;;;;;;;10512506;28;20085;-61
2022/11/26 22:54:23;;;;;;;12.70;4.57;;;;;;;;;;10483079;28;20032;-61
2022/11/26 22:59:26;;;;;;;8.15;4.25;;;;;;;;;;10452121;28;20029;-62
2022/11/26 23:04:26;;;;;;;13.23;4.65;;;;;;;;;;10452445;28;20483;-62
2022/11/26 23:09:27;;;;;;;11.57;4.47;;;;;;;;;;10455315;28;20016;-62
2022/11/26 23:14:28;;;;;;;9.10;4.35;;;;;;;;;;10433611;28;20028;-62
2022/11/26 23:19:28;;;;;;;11.80;4.72;;;;;;;;;;10453803;28;20047;-62
2022/11/26 23:24:29;;;;;;;10.57;4.57;;;;;;;;;;10498388;28;20054;-61
2022/11/26 23:29:30;;;;;;;11.73;4.50;;;;;;;;;;10493604;28;20032;-62
2022/11/26 23:34:30;;;;;;;10.45;4.32;;;;;;;;;;10518841;28;20447;-62
2022/11/26 23:39:31;;;;;;;11.93;4.63;;;;;;;;;;10507989;28;20060;-62
2022/11/26 23:44:32;;;;;;;6.97;4.00;;;;;;;;;;10490082;28;20024;-61
2022/11/26 23:49:32;;;;;;;8.70;3.92;;;;;;;;;;10499931;28;20035;-62
2022/11/26 23:54:33;;;;;;;8.23;4.38;;;;;;;;;;10497696;28;20036;-62
2022/11/26 23:59:33;;;;;;;8.02;3.80;;;;;;;;;;10488485;28;20461;-62
